createdAt,value
2018-05-31T00:01:56.432Z,96.50
2018-05-31T00:04:24.706Z,96.70
2018-05-31T00:06:52.975Z,96.40
2018-05-31T00:09:21.247Z,96.80
2018-05-31T00:11:49.543Z,96.60
2018-05-31T00:14:17.797Z,96.60
2018-05-31T00:16:46.056Z,96.90
2018-05-31T00:19:14.357Z,97.00
2018-05-31T00:21:42.624Z,96.90
2018-05-31T00:24:10.900Z,97.10
2018-05-31T00:26:39.160Z,97.20
2018-05-31T00:29:07.459Z,97.30
2018-05-31T00:31:35.716Z,97.30
2018-05-31T00:34:04.972Z,97.20
2018-05-31T00:36:33.227Z,97.30
2018-05-31T00:39:01.581Z,97.50
2018-05-31T00:41:29.836Z,97.60
2018-05-31T00:43:58.093Z,97.80
2018-05-31T00:46:27.123Z,98.00
2018-05-31T00:48:55.375Z,98.00
2018-05-31T00:51:24.935Z,98.00
2018-05-31T00:53:53.175Z,97.90
2018-05-31T00:56:21.451Z,98.00
2018-05-31T00:58:49.732Z,98.10
2018-05-31T01:01:18.003Z,98.40
2018-05-31T01:03:46.381Z,98.30
2018-05-31T01:06:14.647Z,98.20
2018-05-31T01:08:42.891Z,98.10
2018-05-31T01:11:11.904Z,97.90
2018-05-31T01:13:40.304Z,97.90
2018-05-31T01:16:08.549Z,97.80
2018-05-31T01:18:37.690Z,98.00
2018-05-31T01:21:05.953Z,98.00
2018-05-31T01:23:34.199Z,97.90
2018-05-31T01:26:02.498Z,98.10
2018-05-31T01:28:30.767Z,98.20
2018-05-31T01:30:59.043Z,98.40
2018-05-31T01:33:27.319Z,98.50
2018-05-31T01:35:55.598Z,98.60
2018-05-31T01:38:32.713Z,98.50
2018-05-31T01:41:00.962Z,98.50
2018-05-31T01:43:29.248Z,98.50
2018-05-31T01:45:57.515Z,98.50
2018-05-31T01:48:25.774Z,98.30
2018-05-31T01:50:54.026Z,98.10
2018-05-31T01:53:22.282Z,98.20
2018-05-31T01:55:51.328Z,98.80
2018-05-31T01:58:19.607Z,98.80
2018-05-31T02:00:47.851Z,98.80
2018-05-31T02:03:16.103Z,98.90
2018-05-31T02:05:45.112Z,99.20
2018-05-31T02:08:13.377Z,99.10
2018-05-31T02:10:42.412Z,99.10
2018-05-31T02:13:10.682Z,99.10
2018-05-31T02:15:38.931Z,98.80
2018-05-31T02:18:07.240Z,99.10
2018-05-31T02:20:35.487Z,99.00
2018-05-31T02:23:03.786Z,99.00
2018-05-31T02:25:32.058Z,99.00
2018-05-31T02:28:00.323Z,98.90
2018-05-31T02:30:28.611Z,99.30
2018-05-31T02:32:56.890Z,99.40
2018-05-31T02:35:25.168Z,99.40
2018-05-31T02:37:53.535Z,99.30
2018-05-31T02:40:21.815Z,99.00
2018-05-31T02:42:50.179Z,98.90
2018-05-31T02:45:18.436Z,98.70
2018-05-31T02:47:47.447Z,99.00
2018-05-31T02:50:15.741Z,99.00
2018-05-31T02:52:43.987Z,98.90
2018-05-31T02:55:12.243Z,98.70
2018-05-31T02:57:42.103Z,98.10
2018-05-31T03:00:10.357Z,98.10
2018-05-31T03:02:38.602Z,97.80
2018-05-31T03:05:07.628Z,97.30
2018-05-31T03:07:35.875Z,97.30
2018-05-31T03:10:04.955Z,96.90
2018-05-31T03:12:33.303Z,96.90
2018-05-31T03:15:01.568Z,96.70
2018-05-31T03:17:29.823Z,96.50
2018-05-31T03:19:58.123Z,96.70
2018-05-31T03:22:26.395Z,97.00
2018-05-31T03:24:54.662Z,97.10
2018-05-31T03:27:22.944Z,97.50
2018-05-31T03:29:51.195Z,97.50
2018-05-31T03:32:19.435Z,97.50
2018-05-31T03:34:47.766Z,97.30
2018-05-31T03:37:16.052Z,96.80
2018-05-31T03:39:44.324Z,96.40
2018-05-31T03:42:12.594Z,95.90
2018-05-31T03:44:40.846Z,95.50
2018-05-31T03:47:09.148Z,95.10
2018-05-31T03:49:37.402Z,94.70
2018-05-31T03:52:05.644Z,94.20
2018-05-31T03:54:33.900Z,93.80
2018-05-31T03:57:02.147Z,93.90
2018-05-31T03:59:30.426Z,92.90
2018-05-31T04:01:58.703Z,92.20
2018-05-31T04:04:26.967Z,91.70
2018-05-31T04:06:55.251Z,91.00
2018-05-31T04:09:23.522Z,90.50
2018-05-31T04:11:51.783Z,90.20
2018-05-31T04:14:20.030Z,89.10
2018-05-31T04:16:49.091Z,85.00
2018-05-31T04:19:17.340Z,85.00
2018-05-31T04:21:45.618Z,83.80
2018-05-31T04:24:13.864Z,83.30
2018-05-31T04:26:42.171Z,81.90
2018-05-31T04:29:10.420Z,80.30
2018-05-31T04:31:38.730Z,79.00
2018-05-31T04:34:06.999Z,78.00
2018-05-31T04:36:35.263Z,76.80
2018-05-31T04:39:03.515Z,75.50
2018-05-31T04:41:31.771Z,74.70
2018-05-31T04:44:00.012Z,74.00
2018-05-31T04:46:28.371Z,73.50
2018-05-31T04:48:56.654Z,71.90
2018-05-31T04:51:24.923Z,70.40
2018-05-31T04:53:53.168Z,69.20
2018-05-31T04:56:21.471Z,68.30
2018-05-31T04:58:49.723Z,67.20
2018-05-31T05:01:18.749Z,64.20
2018-05-31T05:03:46.991Z,64.20
2018-05-31T05:06:15.245Z,62.70
2018-05-31T05:08:44.260Z,59.10
2018-05-31T05:11:12.507Z,59.10
2018-05-31T05:13:41.511Z,56.80
2018-05-31T05:16:10.538Z,57.50
2018-05-31T05:18:38.818Z,57.40
2018-05-31T05:21:07.097Z,57.10
2018-05-31T05:23:35.383Z,58.50
2018-05-31T05:26:03.640Z,57.30
2018-05-31T05:28:31.923Z,56.50
2018-05-31T05:31:00.195Z,56.70
2018-05-31T05:33:28.467Z,56.60
2018-05-31T05:35:56.706Z,55.50
2018-05-31T05:38:25.731Z,53.40
2018-05-31T05:40:54.167Z,53.30
2018-05-31T05:43:23.208Z,49.50
2018-05-31T05:45:51.487Z,49.50
2018-05-31T05:48:19.760Z,49.50
2018-05-31T05:50:48.008Z,48.80
2018-05-31T05:53:16.255Z,47.70
2018-05-31T05:55:45.299Z,44.70
2018-05-31T05:58:13.555Z,44.70
2018-05-31T06:00:41.858Z,43.10
2018-05-31T06:03:10.130Z,41.60
2018-05-31T06:05:38.380Z,39.60
2018-05-31T06:08:06.651Z,40.40
2018-05-31T06:10:34.956Z,40.60
2018-05-31T06:13:03.228Z,42.50
2018-05-31T06:15:31.525Z,42.30
2018-05-31T06:17:59.782Z,40.30
2018-05-31T06:20:28.026Z,39.60
2018-05-31T06:22:56.282Z,39.90
2018-05-31T06:25:25.327Z,40.40
2018-05-31T06:27:54.979Z,39.80
2018-05-31T06:30:23.310Z,38.70
2018-05-31T06:32:51.568Z,36.40
2018-05-31T06:35:19.858Z,35.40
2018-05-31T06:37:48.139Z,36.60
2018-05-31T06:40:16.387Z,36.30
2018-05-31T06:42:44.638Z,38.00
2018-05-31T06:45:13.655Z,37.90
2018-05-31T06:47:41.906Z,37.90
2018-05-31T06:50:10.955Z,38.40
2018-05-31T06:52:39.206Z,38.40
2018-05-31T06:55:07.500Z,38.90
2018-05-31T06:57:35.772Z,39.10
2018-05-31T07:00:04.013Z,40.40
2018-05-31T07:02:33.019Z,38.40
2018-05-31T07:05:01.270Z,38.30
2018-05-31T07:07:30.312Z,39.90
2018-05-31T07:09:58.582Z,39.90
2018-05-31T07:12:26.856Z,40.40
2018-05-31T07:14:55.161Z,40.70
2018-05-31T07:17:23.406Z,41.40
2018-05-31T07:19:51.687Z,41.80
2018-05-31T07:22:20.571Z,40.70
2018-05-31T07:24:48.819Z,39.80
2018-05-31T07:27:17.846Z,41.80
2018-05-31T07:29:46.070Z,41.70
2018-05-31T07:32:15.111Z,43.20
2018-05-31T07:34:43.357Z,43.20
2018-05-31T07:37:11.600Z,42.20
2018-05-31T07:39:39.855Z,42.50
2018-05-31T07:42:08.095Z,44.60
2018-05-31T07:44:36.384Z,44.60
2018-05-31T07:47:04.627Z,44.80
2018-05-31T07:49:33.651Z,47.20
2018-05-31T07:52:01.934Z,47.20
2018-05-31T07:54:30.199Z,48.30
2018-05-31T07:56:58.475Z,49.40
2018-05-31T07:59:26.730Z,49.40
2018-05-31T08:01:55.081Z,49.50
2018-05-31T08:04:23.334Z,52.20
2018-05-31T08:06:51.591Z,53.70
2018-05-31T08:09:19.839Z,53.30
2018-05-31T08:11:48.132Z,54.70
2018-05-31T08:14:16.384Z,54.30
2018-05-31T08:16:44.683Z,54.00
2018-05-31T08:19:12.957Z,54.00
2018-05-31T08:21:41.242Z,55.00
2018-05-31T08:24:09.610Z,53.30
2018-05-31T08:26:37.858Z,52.10
2018-05-31T08:29:06.462Z,52.90
2018-05-31T08:31:34.754Z,55.10
2018-05-31T08:34:03.740Z,55.70
2018-05-31T08:36:32.016Z,55.60
2018-05-31T08:39:00.333Z,54.90
2018-05-31T08:41:28.561Z,54.70
2018-05-31T08:43:56.812Z,54.30
2018-05-31T08:46:25.058Z,53.70
2018-05-31T08:48:54.078Z,53.60
2018-05-31T08:51:22.387Z,53.60
2018-05-31T08:53:50.636Z,55.20
2018-05-31T08:56:18.892Z,54.30
2018-05-31T08:58:48.745Z,53.20
2018-05-31T09:01:17.010Z,53.20
2018-05-31T09:03:45.299Z,52.90
2018-05-31T09:06:14.026Z,53.40
2018-05-31T09:08:42.246Z,55.10
2018-05-31T09:11:10.508Z,55.40
2018-05-31T09:13:38.807Z,54.40
2018-05-31T09:16:07.063Z,56.40
2018-05-31T09:18:35.311Z,54.50
2018-05-31T09:21:04.334Z,54.60
2018-05-31T09:23:32.578Z,54.60
2018-05-31T09:26:01.605Z,53.80
2018-05-31T09:28:29.916Z,53.70
2018-05-31T09:30:58.167Z,52.50
2018-05-31T09:33:26.492Z,53.10
2018-05-31T09:35:54.828Z,55.00
2018-05-31T09:38:23.355Z,56.70
2018-05-31T09:40:52.373Z,54.80
2018-05-31T09:43:20.886Z,54.80
2018-05-31T09:45:49.163Z,55.30
2018-05-31T09:48:17.408Z,53.50
2018-05-31T09:50:45.706Z,51.40
2018-05-31T09:53:13.978Z,53.10
2018-05-31T09:55:42.298Z,52.50
2018-05-31T09:58:10.726Z,52.20
2018-05-31T10:00:39.011Z,51.60
2018-05-31T10:03:07.258Z,52.30
2018-05-31T10:05:35.508Z,51.50
2018-05-31T10:08:04.559Z,53.20
2018-05-31T10:10:32.812Z,52.50
2018-05-31T10:13:01.069Z,51.60
2018-05-31T10:15:30.083Z,51.00
2018-05-31T10:17:58.340Z,50.90
2018-05-31T10:20:26.590Z,50.70
2018-05-31T10:22:54.918Z,50.70
2018-05-31T10:25:23.172Z,50.90
2018-05-31T10:27:51.475Z,52.70
2018-05-31T10:30:19.720Z,53.20
2018-05-31T10:32:48.027Z,53.00
2018-05-31T10:35:16.641Z,53.50
2018-05-31T10:37:45.708Z,54.70
2018-05-31T10:40:13.955Z,56.40
2018-05-31T10:42:42.207Z,56.80
2018-05-31T10:45:11.222Z,58.10
2018-05-31T10:47:39.476Z,58.00
2018-05-31T10:50:08.643Z,58.50
2018-05-31T10:52:36.891Z,58.40
2018-05-31T10:55:05.141Z,59.20
2018-05-31T10:57:33.443Z,60.00
2018-05-31T11:00:01.711Z,60.30
2018-05-31T11:02:29.963Z,61.40
2018-05-31T11:04:58.988Z,63.10
2018-05-31T11:07:27.235Z,63.10
2018-05-31T11:09:56.271Z,63.30
2018-05-31T11:12:24.525Z,63.30
2018-05-31T11:14:52.795Z,65.20
2018-05-31T11:17:21.808Z,73.20
2018-05-31T11:19:50.053Z,73.20
2018-05-31T11:22:18.355Z,72.80
2018-05-31T11:24:46.611Z,71.20
2018-05-31T11:27:14.860Z,71.30
2018-05-31T11:29:44.010Z,76.20
2018-05-31T11:32:12.251Z,79.00
2018-05-31T11:34:40.567Z,82.00
2018-05-31T11:37:09.528Z,84.70
2018-05-31T11:39:37.819Z,84.70
2018-05-31T11:42:07.019Z,81.80
2018-05-31T11:44:35.295Z,81.90
2018-05-31T11:47:03.553Z,83.70
2018-05-31T11:49:31.843Z,79.20
2018-05-31T11:52:00.087Z,81.50
2018-05-31T11:54:28.399Z,84.40
2018-05-31T11:56:56.642Z,78.70
2018-05-31T11:59:24.948Z,84.80
2018-05-31T12:01:53.246Z,80.80
2018-05-31T12:04:21.602Z,80.20
2018-05-31T12:06:49.850Z,72.30
2018-05-31T12:09:18.107Z,65.90
2018-05-31T12:11:47.119Z,66.50
2018-05-31T12:14:15.384Z,66.30
2018-05-31T12:16:44.407Z,67.00
2018-05-31T12:19:12.732Z,67.00
2018-05-31T12:21:43.458Z,64.20
2018-05-31T12:24:13.236Z,60.30
2018-05-31T12:26:41.492Z,60.80
2018-05-31T12:29:09.780Z,61.60
2018-05-31T12:31:38.024Z,61.00
2018-05-31T12:34:06.329Z,58.80
2018-05-31T12:36:34.613Z,58.40
2018-05-31T12:39:02.866Z,58.20
2018-05-31T12:41:31.167Z,56.80
2018-05-31T12:43:59.535Z,57.20
2018-05-31T12:46:27.783Z,57.20
2018-05-31T12:48:57.494Z,57.00
2018-05-31T12:51:26.504Z,56.70
2018-05-31T12:53:54.746Z,56.70
2018-05-31T12:56:23.775Z,56.40
2018-05-31T12:58:52.019Z,56.30
2018-05-31T13:01:21.053Z,57.10
2018-05-31T13:03:49.295Z,57.10
2018-05-31T13:06:17.599Z,55.30
2018-05-31T13:08:45.852Z,55.80
2018-05-31T13:11:15.032Z,54.80
2018-05-31T13:13:44.067Z,55.20
2018-05-31T13:16:12.314Z,55.10
2018-05-31T13:18:42.415Z,55.90
2018-05-31T13:21:11.431Z,56.70
2018-05-31T13:23:40.038Z,56.60
2018-05-31T13:26:08.283Z,57.70
2018-05-31T13:28:36.531Z,57.90
2018-05-31T13:31:05.617Z,57.30
2018-05-31T13:33:33.851Z,57.00
2018-05-31T13:36:02.511Z,57.70
2018-05-31T13:38:31.538Z,58.60
2018-05-31T13:40:59.791Z,58.60
2018-05-31T13:43:28.047Z,58.80
2018-05-31T13:45:57.066Z,60.00
2018-05-31T13:48:25.331Z,60.00
2018-05-31T13:50:53.631Z,59.30
2018-05-31T13:53:21.895Z,59.80
2018-05-31T13:55:50.218Z,60.40
2018-05-31T13:58:18.506Z,59.30
2018-05-31T14:00:46.760Z,60.00
2018-05-31T14:03:15.103Z,59.00
2018-05-31T14:05:43.424Z,59.70
2018-05-31T14:08:11.654Z,60.40
2018-05-31T14:10:39.915Z,63.80
2018-05-31T14:13:08.164Z,66.40
2018-05-31T14:15:37.305Z,63.90
2018-05-31T14:18:05.554Z,63.80
2018-05-31T14:20:33.799Z,63.60
2018-05-31T14:23:02.134Z,62.60
2018-05-31T14:25:30.399Z,58.20
2018-05-31T14:27:58.679Z,57.70
2018-05-31T14:30:26.923Z,59.70
2018-05-31T14:32:55.178Z,58.20
2018-05-31T14:35:24.215Z,56.80
2018-05-31T14:37:52.471Z,56.80
2018-05-31T14:40:20.736Z,57.50
2018-05-31T14:42:49.828Z,57.10
2018-05-31T14:45:18.839Z,57.30
2018-05-31T14:47:47.091Z,57.30
2018-05-31T14:50:16.134Z,54.70
2018-05-31T14:52:44.387Z,54.80
2018-05-31T14:55:12.627Z,53.10
2018-05-31T14:57:41.735Z,52.40
2018-05-31T15:00:10.771Z,52.40
2018-05-31T15:02:39.047Z,52.40
2018-05-31T15:05:07.292Z,53.40
2018-05-31T15:07:35.546Z,53.70
2018-05-31T15:10:04.607Z,55.30
2018-05-31T15:12:32.967Z,55.20
2018-05-31T15:15:01.207Z,52.70
2018-05-31T15:17:30.227Z,54.10
2018-05-31T15:19:58.475Z,54.10
2018-05-31T15:22:27.605Z,53.90
2018-05-31T15:24:55.855Z,53.90
2018-05-31T15:27:24.147Z,54.60
2018-05-31T15:29:52.392Z,54.30
2018-05-31T15:32:21.418Z,56.40
2018-05-31T15:34:49.671Z,56.30
2018-05-31T15:37:17.923Z,56.90
2018-05-31T15:39:46.943Z,57.40
2018-05-31T15:42:15.210Z,57.30
2018-05-31T15:44:45.008Z,63.60
2018-05-31T15:47:14.050Z,64.10
2018-05-31T15:49:42.297Z,64.10
2018-05-31T15:52:10.591Z,64.70
2018-05-31T15:54:38.895Z,65.20
2018-05-31T15:57:07.189Z,65.80
2018-05-31T15:59:35.415Z,66.80
2018-05-31T16:02:04.515Z,68.80
2018-05-31T16:04:32.772Z,68.50
2018-05-31T16:07:01.021Z,68.80
2018-05-31T16:09:30.043Z,68.60
2018-05-31T16:11:58.283Z,68.60
2018-05-31T16:14:27.298Z,69.60
2018-05-31T16:16:55.598Z,69.60
2018-05-31T16:19:24.158Z,69.40
2018-05-31T16:21:52.455Z,69.60
2018-05-31T16:24:20.736Z,70.00
2018-05-31T16:26:48.983Z,70.30
2018-05-31T16:29:17.278Z,70.30
2018-05-31T16:31:45.535Z,70.40
2018-05-31T16:34:13.839Z,70.10
2018-05-31T16:36:42.083Z,69.70
2018-05-31T16:39:10.392Z,69.70
2018-05-31T16:41:38.651Z,69.60
2018-05-31T16:44:06.890Z,69.60
2018-05-31T16:46:35.904Z,70.00
2018-05-31T16:49:04.317Z,69.90
2018-05-31T16:51:32.580Z,69.90
2018-05-31T16:54:00.826Z,70.10
2018-05-31T16:56:29.855Z,70.80
2018-05-31T16:58:58.107Z,70.80
2018-05-31T17:01:26.406Z,70.90
2018-05-31T17:03:54.661Z,71.10
2018-05-31T17:06:22.960Z,71.00
2018-05-31T17:08:51.206Z,71.10
2018-05-31T17:11:19.454Z,71.00
2018-05-31T17:13:48.495Z,70.70
2018-05-31T17:16:16.744Z,70.40
2018-05-31T17:18:45.755Z,70.70
2018-05-31T17:21:14.011Z,70.70
2018-05-31T17:23:43.018Z,71.00
2018-05-31T17:26:11.323Z,71.00
2018-05-31T17:28:39.641Z,71.10
2018-05-31T17:31:07.872Z,71.40
2018-05-31T17:33:36.270Z,71.40
2018-05-31T17:36:04.498Z,71.10
2018-05-31T17:38:32.807Z,71.70
2018-05-31T17:41:01.063Z,69.60
2018-05-31T17:43:29.807Z,65.20
2018-05-31T17:45:58.075Z,62.20
2018-05-31T17:48:26.411Z,62.40
2018-05-31T17:50:54.667Z,61.10
2018-05-31T17:53:22.959Z,60.10
2018-05-31T17:55:51.243Z,60.00
2018-05-31T17:58:19.515Z,60.40
2018-05-31T18:00:47.771Z,61.60
2018-05-31T18:03:16.027Z,63.20
2018-05-31T18:05:47.005Z,61.20
2018-05-31T18:08:15.279Z,61.20
2018-05-31T18:10:43.536Z,60.50
2018-05-31T18:13:11.783Z,60.50
2018-05-31T18:15:40.800Z,61.50
2018-05-31T18:18:09.043Z,61.80
2018-05-31T18:20:37.292Z,61.60
2018-05-31T18:23:05.532Z,62.20
2018-05-31T18:25:33.783Z,62.20
2018-05-31T18:28:02.020Z,62.40
2018-05-31T18:30:30.378Z,62.00
2018-05-31T18:32:58.647Z,61.80
2018-05-31T18:35:26.942Z,61.60
2018-05-31T18:37:55.183Z,61.70
2018-05-31T18:40:23.460Z,62.50
2018-05-31T18:42:51.694Z,64.30
2018-05-31T18:45:19.935Z,66.20
2018-05-31T18:47:48.199Z,68.30
2018-05-31T18:50:16.479Z,68.70
2018-05-31T18:52:44.740Z,70.30
2018-05-31T18:55:12.982Z,71.60
2018-05-31T18:57:41.238Z,72.50
2018-05-31T19:00:09.587Z,75.80
2018-05-31T19:02:37.839Z,79.90
2018-05-31T19:05:06.088Z,83.40
2018-05-31T19:07:35.103Z,86.40
2018-05-31T19:10:04.231Z,86.40
2018-05-31T19:12:38.187Z,88.70
2018-05-31T19:15:07.239Z,90.30
2018-05-31T19:17:35.498Z,90.30
2018-05-31T19:20:03.751Z,91.30
2018-05-31T19:22:32.004Z,91.70
2018-05-31T19:25:06.747Z,92.50
2018-05-31T19:27:35.820Z,92.80
2018-05-31T19:33:07.967Z,92.90
2018-05-31T19:35:42.090Z,92.20
2018-05-31T19:38:10.353Z,92.40
2018-05-31T19:40:38.594Z,93.10
2018-05-31T19:43:13.334Z,93.10
2018-05-31T19:45:41.643Z,93.10
2018-05-31T19:48:09.907Z,93.30
2018-05-31T19:50:38.156Z,93.70
2018-05-31T19:53:12.928Z,93.70
2018-05-31T19:55:41.190Z,93.70
2018-05-31T19:58:15.095Z,94.10
2018-05-31T20:00:48.971Z,94.30
2018-05-31T20:03:23.707Z,92.80
2018-05-31T20:05:51.953Z,92.80
2018-05-31T20:08:20.203Z,93.70
2018-05-31T20:10:48.446Z,95.30
2018-05-31T20:13:16.750Z,95.00
2018-05-31T20:15:44.989Z,93.70
2018-05-31T20:18:13.244Z,92.40
2018-05-31T20:20:42.328Z,91.10
2018-05-31T20:23:10.552Z,91.10
2018-05-31T20:25:38.811Z,91.00
2018-05-31T20:28:07.051Z,90.90
2018-05-31T20:30:35.409Z,91.00
2018-05-31T20:33:03.659Z,90.60
2018-05-31T20:35:31.948Z,90.40
2018-05-31T20:38:00.210Z,90.60
2018-05-31T20:40:28.478Z,90.70
2018-05-31T20:42:56.755Z,91.40
2018-05-31T20:45:25.038Z,91.30
2018-05-31T20:47:53.283Z,91.50
2018-05-31T20:50:21.534Z,91.00
2018-05-31T20:52:50.551Z,91.40
2018-05-31T20:55:18.806Z,91.40
2018-05-31T20:57:47.822Z,93.10
2018-05-31T21:00:16.127Z,93.10
2018-05-31T21:02:44.396Z,93.30
2018-05-31T21:05:12.675Z,92.90
2018-05-31T21:07:40.951Z,92.50
2018-05-31T21:10:09.207Z,92.30
2018-05-31T21:12:37.512Z,91.80
2018-05-31T21:15:05.763Z,91.80
2018-05-31T21:17:34.045Z,91.80
2018-05-31T21:20:02.329Z,92.10
2018-05-31T21:22:30.545Z,92.30
2018-05-31T21:24:58.875Z,91.80
2018-05-31T21:27:27.157Z,91.80
2018-05-31T21:29:55.406Z,92.00
2018-05-31T21:32:23.742Z,92.40
2018-05-31T21:34:52.079Z,92.50
2018-05-31T21:37:20.329Z,92.80
2018-05-31T21:39:49.451Z,92.80
2018-05-31T21:42:17.731Z,92.80
2018-05-31T21:44:45.988Z,93.10
2018-05-31T21:47:14.252Z,93.00
2018-05-31T21:49:42.511Z,92.70
2018-05-31T21:52:11.528Z,92.90
2018-05-31T21:54:39.782Z,92.50
2018-05-31T21:57:08.797Z,92.50
2018-05-31T21:59:37.087Z,92.50
2018-05-31T22:02:05.334Z,92.10
2018-05-31T22:04:33.595Z,92.00
2018-05-31T22:07:02.603Z,92.00
2018-05-31T22:09:30.887Z,91.90
2018-05-31T22:11:59.193Z,93.30
2018-05-31T22:14:27.439Z,93.00
2018-05-31T22:16:55.693Z,92.40
2018-05-31T22:19:24.728Z,92.00
2018-05-31T22:21:52.988Z,92.00
2018-05-31T22:24:21.228Z,91.80
2018-05-31T22:26:50.255Z,93.00
2018-05-31T22:29:18.503Z,92.60
2018-05-31T22:31:47.557Z,93.30
2018-05-31T22:34:15.814Z,93.30
2018-05-31T22:36:44.054Z,93.90
2018-05-31T22:39:12.303Z,94.50
2018-05-31T22:41:40.550Z,94.30
2018-05-31T22:44:08.794Z,94.40
2018-05-31T22:46:37.063Z,94.30
2018-05-31T22:49:05.308Z,94.70
2018-05-31T22:51:33.561Z,94.70
2018-05-31T22:54:01.816Z,94.70
2018-05-31T22:56:30.095Z,94.50
2018-05-31T22:58:58.367Z,94.70
2018-05-31T23:01:26.643Z,94.10
2018-05-31T23:03:54.905Z,93.40
2018-05-31T23:06:23.159Z,93.00
2018-05-31T23:08:52.186Z,92.40
2018-05-31T23:11:20.441Z,92.40
2018-05-31T23:13:48.695Z,92.60
2018-05-31T23:16:17.717Z,92.40
2018-05-31T23:18:46.015Z,92.30
2018-05-31T23:21:14.266Z,92.30
2018-05-31T23:23:42.552Z,91.90
2018-05-31T23:26:10.807Z,92.40
2018-05-31T23:28:39.102Z,93.10
2018-05-31T23:31:07.356Z,93.70
2018-05-31T23:33:35.606Z,93.90
2018-05-31T23:36:03.931Z,93.90
2018-05-31T23:38:32.526Z,94.20
2018-05-31T23:41:00.746Z,94.70
2018-05-31T23:43:29.758Z,93.00
2018-05-31T23:45:58.007Z,93.00
2018-05-31T23:48:27.039Z,92.80
2018-05-31T23:50:55.319Z,92.80
2018-05-31T23:53:23.605Z,92.80
2018-05-31T23:55:52.093Z,93.00
2018-05-31T23:58:20.762Z,93.10
